sensor_id;sensor_type;location;lat;lon;timestamp;pressure;altitude;pressure_sealevel;temperature;humidity
55685;BME280;41883;49.544;8.646;2023-04-29T00:00:48;100185.50;;;13.87;nan
55685;BME280;41883;49.544;8.646;2023-04-29T00:03:13;100182.84;;;13.87;nan
55685;BME280;41883;49.544;8.646;2023-04-29T00:05:39;100177.72;;;13.85;nan
55685;BME280;41883;49.544;8.646;2023-04-29T00:08:04;100177.44;;;13.80;nan
55685;BME280;41883;49.544;8.646;2023-04-29T00:10:29;100181.47;;;13.76;nan
55685;BME280;41883;49.544;8.646;2023-04-29T00:12:54;100176.47;;;13.73;nan
55685;BME280;41883;49.544;8.646;2023-04-29T00:15:20;100179.13;;;13.73;nan
55685;BME280;41883;49.544;8.646;2023-04-29T00:17:45;100182.16;;;13.70;nan
55685;BME280;41883;49.544;8.646;2023-04-29T00:20:11;100181.53;;;13.68;nan
55685;BME280;41883;49.544;8.646;2023-04-29T00:22:36;100182.53;;;13.67;nan
55685;BME280;41883;49.544;8.646;2023-04-29T00:25:01;100177.06;;;13.68;nan
55685;BME280;41883;49.544;8.646;2023-04-29T00:27:28;100185.03;;;13.68;nan
55685;BME280;41883;49.544;8.646;2023-04-29T00:29:53;100184.00;;;13.69;nan
55685;BME280;41883;49.544;8.646;2023-04-29T00:32:18;100182.00;;;13.71;nan
55685;BME280;41883;49.544;8.646;2023-04-29T00:34:43;100180.16;;;13.72;nan
55685;BME280;41883;49.544;8.646;2023-04-29T00:37:11;100188.94;;;13.72;nan
55685;BME280;41883;49.544;8.646;2023-04-29T00:39:37;100176.47;;;13.73;nan
55685;BME280;41883;49.544;8.646;2023-04-29T00:42:02;100190.97;;;13.70;nan
55685;BME280;41883;49.544;8.646;2023-04-29T00:44:27;100182.38;;;13.68;nan
55685;BME280;41883;49.544;8.646;2023-04-29T00:46:52;100187.38;;;13.63;nan
55685;BME280;41883;49.544;8.646;2023-04-29T00:49:18;100192.06;;;13.61;nan
55685;BME280;41883;49.544;8.646;2023-04-29T00:51:43;100186.09;;;13.59;nan
55685;BME280;41883;49.544;8.646;2023-04-29T00:54:09;100191.59;;;13.57;nan
55685;BME280;41883;49.544;8.646;2023-04-29T00:56:34;100198.25;;;13.53;nan
55685;BME280;41883;49.544;8.646;2023-04-29T00:59:01;100193.47;;;13.49;nan
55685;BME280;41883;49.544;8.646;2023-04-29T01:01:28;100194.22;;;13.43;nan
55685;BME280;41883;49.544;8.646;2023-04-29T01:03:53;100194.56;;;13.40;nan
55685;BME280;41883;49.544;8.646;2023-04-29T01:11:10;100190.34;;;13.22;nan
55685;BME280;41883;49.544;8.646;2023-04-29T01:13:42;100185.09;;;13.14;nan
55685;BME280;41883;49.544;8.646;2023-04-29T01:16:10;100189.47;;;13.07;nan
55685;BME280;41883;49.544;8.646;2023-04-29T01:18:36;100182.84;;;13.03;nan
55685;BME280;41883;49.544;8.646;2023-04-29T01:21:03;100181.38;;;13.00;nan
55685;BME280;41883;49.544;8.646;2023-04-29T01:23:28;100191.16;;;13.00;nan
55685;BME280;41883;49.544;8.646;2023-04-29T01:25:54;100190.34;;;12.99;nan
55685;BME280;41883;49.544;8.646;2023-04-29T01:33:28;100191.16;;;13.00;nan
55685;BME280;41883;49.544;8.646;2023-04-29T01:38:41;100186.53;;;12.93;nan
55685;BME280;41883;49.544;8.646;2023-04-29T01:41:15;100184.25;;;12.90;nan
55685;BME280;41883;49.544;8.646;2023-04-29T01:43:42;100192.56;;;12.87;nan
55685;BME280;41883;49.544;8.646;2023-04-29T01:46:10;100188.09;;;12.88;nan
55685;BME280;41883;49.544;8.646;2023-04-29T01:48:38;100183.59;;;12.88;nan
55685;BME280;41883;49.544;8.646;2023-04-29T01:51:04;100192.22;;;12.90;nan
55685;BME280;41883;49.544;8.646;2023-04-29T01:53:31;100195.84;;;12.89;nan
55685;BME280;41883;49.544;8.646;2023-04-29T01:55:56;100203.19;;;12.87;nan
55685;BME280;41883;49.544;8.646;2023-04-29T01:58:21;100207.31;;;12.90;nan
55685;BME280;41883;49.544;8.646;2023-04-29T02:00:47;100204.31;;;12.93;nan
55685;BME280;41883;49.544;8.646;2023-04-29T02:03:12;100205.13;;;12.93;nan
55685;BME280;41883;49.544;8.646;2023-04-29T02:05:37;100204.97;;;12.95;nan
55685;BME280;41883;49.544;8.646;2023-04-29T02:08:04;100211.09;;;12.95;nan
55685;BME280;41883;49.544;8.646;2023-04-29T02:10:31;100204.97;;;12.95;nan
55685;BME280;41883;49.544;8.646;2023-04-29T02:12:56;100206.97;;;12.93;nan
55685;BME280;41883;49.544;8.646;2023-04-29T02:15:21;100212.28;;;12.93;nan
55685;BME280;41883;49.544;8.646;2023-04-29T02:17:47;100213.28;;;12.92;nan
55685;BME280;41883;49.544;8.646;2023-04-29T02:20:12;100214.91;;;12.93;nan
55685;BME280;41883;49.544;8.646;2023-04-29T02:22:37;100226.34;;;12.93;nan
55685;BME280;41883;49.544;8.646;2023-04-29T02:25:03;100219.22;;;12.94;nan
55685;BME280;41883;49.544;8.646;2023-04-29T02:27:28;100229.50;;;12.97;nan
55685;BME280;41883;49.544;8.646;2023-04-29T02:29:53;100231.50;;;12.95;nan
55685;BME280;41883;49.544;8.646;2023-04-29T02:32:18;100232.47;;;12.94;nan
55685;BME280;41883;49.544;8.646;2023-04-29T02:34:46;100231.66;;;12.93;nan
55685;BME280;41883;49.544;8.646;2023-04-29T02:37:11;100231.19;;;12.90;nan
55685;BME280;41883;49.544;8.646;2023-04-29T02:39:37;100231.72;;;12.85;nan
55685;BME280;41883;49.544;8.646;2023-04-29T02:42:02;100239.38;;;12.80;nan
55685;BME280;41883;49.544;8.646;2023-04-29T02:44:28;100230.94;;;12.77;nan
55685;BME280;41883;49.544;8.646;2023-04-29T02:46:53;100233.44;;;12.70;nan
55685;BME280;41883;49.544;8.646;2023-04-29T02:49:18;100241.91;;;12.65;nan
55685;BME280;41883;49.544;8.646;2023-04-29T02:51:43;100240.78;;;12.60;nan
55685;BME280;41883;49.544;8.646;2023-04-29T02:54:08;100240.16;;;12.49;nan
55685;BME280;41883;49.544;8.646;2023-04-29T02:56:35;100240.84;;;12.43;nan
55685;BME280;41883;49.544;8.646;2023-04-29T02:59:00;100232.91;;;12.35;nan
55685;BME280;41883;49.544;8.646;2023-04-29T03:01:25;100231.94;;;12.28;nan
55685;BME280;41883;49.544;8.646;2023-04-29T03:03:51;100235.97;;;12.16;nan
55685;BME280;41883;49.544;8.646;2023-04-29T03:06:16;100238.44;;;12.09;nan
55685;BME280;41883;49.544;8.646;2023-04-29T03:08:41;100244.25;;;12.04;nan
55685;BME280;41883;49.544;8.646;2023-04-29T03:11:07;100238.97;;;12.04;nan
55685;BME280;41883;49.544;8.646;2023-04-29T03:13:32;100245.06;;;12.05;nan
55685;BME280;41883;49.544;8.646;2023-04-29T03:15:57;100240.59;;;12.05;nan
55685;BME280;41883;49.544;8.646;2023-04-29T03:18:24;100240.13;;;12.02;nan
55685;BME280;41883;49.544;8.646;2023-04-29T03:20:49;100237.97;;;11.97;nan
55685;BME280;41883;49.544;8.646;2023-04-29T03:23:14;100241.47;;;11.89;nan
55685;BME280;41883;49.544;8.646;2023-04-29T03:25:40;100243.09;;;11.82;nan
55685;BME280;41883;49.544;8.646;2023-04-29T03:28:05;100236.63;;;11.77;nan
55685;BME280;41883;49.544;8.646;2023-04-29T03:30:30;100249.22;;;11.75;nan
55685;BME280;41883;49.544;8.646;2023-04-29T03:32:56;100250.56;;;11.71;nan
55685;BME280;41883;49.544;8.646;2023-04-29T03:35:21;100243.94;;;11.66;nan
55685;BME280;41883;49.544;8.646;2023-04-29T03:37:46;100246.91;;;11.63;nan
55685;BME280;41883;49.544;8.646;2023-04-29T03:40:11;100252.50;;;11.60;nan
55685;BME280;41883;49.544;8.646;2023-04-29T03:42:37;100251.69;;;11.60;nan
55685;BME280;41883;49.544;8.646;2023-04-29T03:45:02;100250.06;;;11.59;nan
55685;BME280;41883;49.544;8.646;2023-04-29T03:47:27;100249.88;;;11.60;nan
55685;BME280;41883;49.544;8.646;2023-04-29T03:49:52;100250.53;;;11.62;nan
55685;BME280;41883;49.544;8.646;2023-04-29T03:52:18;100260.97;;;11.64;nan
55685;BME280;41883;49.544;8.646;2023-04-29T03:54:43;100261.31;;;11.61;nan
55685;BME280;41883;49.544;8.646;2023-04-29T03:57:08;100262.97;;;11.62;nan
55685;BME280;41883;49.544;8.646;2023-04-29T03:59:33;100264.78;;;11.61;nan
55685;BME280;41883;49.544;8.646;2023-04-29T04:01:59;100263.09;;;11.60;nan
55685;BME280;41883;49.544;8.646;2023-04-29T04:04:24;100263.97;;;11.61;nan
55685;BME280;41883;49.544;8.646;2023-04-29T04:06:50;100268.91;;;11.64;nan
55685;BME280;41883;49.544;8.646;2023-04-29T04:09:18;100278.50;;;11.65;nan
55685;BME280;41883;49.544;8.646;2023-04-29T04:11:44;100277.34;;;11.67;nan
55685;BME280;41883;49.544;8.646;2023-04-29T04:14:09;100280.66;;;11.69;nan
55685;BME280;41883;49.544;8.646;2023-04-29T04:16:34;100282.97;;;11.73;nan
55685;BME280;41883;49.544;8.646;2023-04-29T04:19:00;100280.69;;;11.78;nan
55685;BME280;41883;49.544;8.646;2023-04-29T04:21:25;100292.09;;;11.78;nan
55685;BME280;41883;49.544;8.646;2023-04-29T04:23:51;100287.63;;;11.79;nan
55685;BME280;41883;49.544;8.646;2023-04-29T04:26:16;100292.59;;;11.82;nan
55685;BME280;41883;49.544;8.646;2023-04-29T04:28:42;100295.91;;;11.84;nan
55685;BME280;41883;49.544;8.646;2023-04-29T04:31:07;100292.09;;;11.86;nan
55685;BME280;41883;49.544;8.646;2023-04-29T04:33:32;100299.56;;;11.91;nan
55685;BME280;41883;49.544;8.646;2023-04-29T04:35:58;100300.09;;;11.95;nan
55685;BME280;41883;49.544;8.646;2023-04-29T04:38:24;100302.41;;;11.98;nan
55685;BME280;41883;49.544;8.646;2023-04-29T04:40:51;100312.34;;;12.04;nan
55685;BME280;41883;49.544;8.646;2023-04-29T04:43:17;100314.81;;;12.05;nan
55685;BME280;41883;49.544;8.646;2023-04-29T04:45:42;100318.28;;;12.06;nan
55685;BME280;41883;49.544;8.646;2023-04-29T04:48:07;100317.28;;;12.07;nan
55685;BME280;41883;49.544;8.646;2023-04-29T04:50:32;100318.94;;;12.08;nan
55685;BME280;41883;49.544;8.646;2023-04-29T04:52:57;100317.78;;;12.10;nan
55685;BME280;41883;49.544;8.646;2023-04-29T04:55:23;100318.28;;;12.14;nan
55685;BME280;41883;49.544;8.646;2023-04-29T04:57:48;100321.75;;;12.15;nan
55685;BME280;41883;49.544;8.646;2023-04-29T05:00:13;100319.63;;;12.18;nan
55685;BME280;41883;49.544;8.646;2023-04-29T05:02:39;100322.06;;;12.20;nan
55685;BME280;41883;49.544;8.646;2023-04-29T05:05:04;100325.41;;;12.22;nan
55685;BME280;41883;49.544;8.646;2023-04-29T05:07:29;100337.69;;;12.23;nan
55685;BME280;41883;49.544;8.646;2023-04-29T05:09:55;100338.66;;;12.22;nan
55685;BME280;41883;49.544;8.646;2023-04-29T05:12:20;100342.47;;;12.19;nan
55685;BME280;41883;49.544;8.646;2023-04-29T05:14:45;100339.97;;;12.18;nan
55685;BME280;41883;49.544;8.646;2023-04-29T05:17:10;100351.75;;;12.15;nan
55685;BME280;41883;49.544;8.646;2023-04-29T05:19:35;100357.22;;;12.14;nan
55685;BME280;41883;49.544;8.646;2023-04-29T05:22:01;100344.78;;;12.14;nan
55685;BME280;41883;49.544;8.646;2023-04-29T05:24:26;100356.22;;;12.15;nan
55685;BME280;41883;49.544;8.646;2023-04-29T05:26:51;100360.84;;;12.13;nan
55685;BME280;41883;49.544;8.646;2023-04-29T05:29:18;100363.69;;;12.11;nan
55685;BME280;41883;49.544;8.646;2023-04-29T05:31:43;100366.81;;;12.15;nan
55685;BME280;41883;49.544;8.646;2023-04-29T05:34:08;100367.34;;;12.18;nan
55685;BME280;41883;49.544;8.646;2023-04-29T05:36:33;100376.59;;;12.22;nan
55685;BME280;41883;49.544;8.646;2023-04-29T05:38:58;100377.25;;;12.24;nan
55685;BME280;41883;49.544;8.646;2023-04-29T05:41:24;100378.59;;;12.28;nan
55685;BME280;41883;49.544;8.646;2023-04-29T05:43:49;100376.59;;;12.30;nan
55685;BME280;41883;49.544;8.646;2023-04-29T05:46:14;100385.22;;;12.32;nan
55685;BME280;41883;49.544;8.646;2023-04-29T05:48:40;100385.69;;;12.36;nan
55685;BME280;41883;49.544;8.646;2023-04-29T05:51:06;100388.19;;;12.38;nan
55685;BME280;41883;49.544;8.646;2023-04-29T05:53:31;100388.69;;;12.41;nan
55685;BME280;41883;49.544;8.646;2023-04-29T05:55:57;100395.81;;;12.41;nan
55685;BME280;41883;49.544;8.646;2023-04-29T05:58:22;100400.28;;;12.40;nan
55685;BME280;41883;49.544;8.646;2023-04-29T06:00:47;100402.44;;;12.37;nan
55685;BME280;41883;49.544;8.646;2023-04-29T06:03:13;100401.75;;;12.35;nan
55685;BME280;41883;49.544;8.646;2023-04-29T06:05:38;100403.78;;;12.32;nan
55685;BME280;41883;49.544;8.646;2023-04-29T06:08:04;100406.75;;;12.29;nan
55685;BME280;41883;49.544;8.646;2023-04-29T06:10:30;100405.94;;;12.21;nan
55685;BME280;41883;49.544;8.646;2023-04-29T06:12:56;100417.34;;;12.13;nan
55685;BME280;41883;49.544;8.646;2023-04-29T06:15:21;100408.91;;;12.09;nan
55685;BME280;41883;49.544;8.646;2023-04-29T06:17:46;100419.84;;;12.06;nan
55685;BME280;41883;49.544;8.646;2023-04-29T06:20:12;100415.22;;;12.08;nan
55685;BME280;41883;49.544;8.646;2023-04-29T06:22:38;100411.88;;;12.15;nan
55685;BME280;41883;49.544;8.646;2023-04-29T06:25:03;100419.50;;;12.18;nan
55685;BME280;41883;49.544;8.646;2023-04-29T06:27:29;100429.94;;;12.19;nan
55685;BME280;41883;49.544;8.646;2023-04-29T06:29:54;100426.81;;;12.24;nan
55685;BME280;41883;49.544;8.646;2023-04-29T06:32:19;100431.63;;;12.28;nan
55685;BME280;41883;49.544;8.646;2023-04-29T06:34:45;100432.44;;;12.29;nan
55685;BME280;41883;49.544;8.646;2023-04-29T06:37:10;100446.84;;;12.26;nan
55685;BME280;41883;49.544;8.646;2023-04-29T06:39:35;100439.41;;;12.30;nan
55685;BME280;41883;49.544;8.646;2023-04-29T06:42:01;100440.72;;;12.42;nan
55685;BME280;41883;49.544;8.646;2023-04-29T06:44:27;100446.03;;;12.59;nan
55685;BME280;41883;49.544;8.646;2023-04-29T06:46:53;100445.88;;;12.68;nan
55685;BME280;41883;49.544;8.646;2023-04-29T06:49:18;100450.31;;;12.76;nan
55685;BME280;41883;49.544;8.646;2023-04-29T06:51:43;100456.78;;;12.82;nan
55685;BME280;41883;49.544;8.646;2023-04-29T06:54:08;100455.28;;;12.87;nan
55685;BME280;41883;49.544;8.646;2023-04-29T06:56:33;100454.63;;;12.85;nan
55685;BME280;41883;49.544;8.646;2023-04-29T06:58:59;100458.91;;;12.86;nan
55685;BME280;41883;49.544;8.646;2023-04-29T07:01:24;100466.69;;;12.96;nan
55685;BME280;41883;49.544;8.646;2023-04-29T07:03:49;100469.50;;;13.03;nan
55685;BME280;41883;49.544;8.646;2023-04-29T07:06:14;100467.22;;;13.00;nan
55685;BME280;41883;49.544;8.646;2023-04-29T07:08:40;100467.88;;;12.93;nan
55685;BME280;41883;49.544;8.646;2023-04-29T07:11:05;100472.50;;;12.91;nan
55685;BME280;41883;49.544;8.646;2023-04-29T07:13:30;100481.31;;;12.92;nan
55685;BME280;41883;49.544;8.646;2023-04-29T07:15:55;100485.28;;;12.96;nan
55685;BME280;41883;49.544;8.646;2023-04-29T07:18:21;100485.13;;;12.98;nan
55685;BME280;41883;49.544;8.646;2023-04-29T07:20:46;100495.06;;;13.04;nan
55685;BME280;41883;49.544;8.646;2023-04-29T07:23:12;100495.72;;;13.14;nan
55685;BME280;41883;49.544;8.646;2023-04-29T07:25:37;100500.34;;;13.04;nan
55685;BME280;41883;49.544;8.646;2023-04-29T07:28:02;100509.34;;;13.03;nan
55685;BME280;41883;49.544;8.646;2023-04-29T07:30:28;100505.03;;;13.02;nan
55685;BME280;41883;49.544;8.646;2023-04-29T07:32:53;100513.19;;;12.92;nan
55685;BME280;41883;49.544;8.646;2023-04-29T07:35:19;100507.69;;;12.85;nan
55685;BME280;41883;49.544;8.646;2023-04-29T07:37:44;100512.19;;;12.85;nan
55685;BME280;41883;49.544;8.646;2023-04-29T07:40:10;100510.53;;;12.75;nan
55685;BME280;41883;49.544;8.646;2023-04-29T07:42:35;100512.34;;;12.83;nan
55685;BME280;41883;49.544;8.646;2023-04-29T07:45:00;100512.31;;;12.75;nan
55685;BME280;41883;49.544;8.646;2023-04-29T07:47:26;100511.19;;;12.78;nan
55685;BME280;41883;49.544;8.646;2023-04-29T07:49:51;100515.81;;;13.00;nan
55685;BME280;41883;49.544;8.646;2023-04-29T07:52:17;100522.75;;;13.01;nan
55685;BME280;41883;49.544;8.646;2023-04-29T07:54:42;100521.25;;;13.15;nan
55685;BME280;41883;49.544;8.646;2023-04-29T07:57:07;100526.69;;;13.46;nan
55685;BME280;41883;49.544;8.646;2023-04-29T07:59:33;100530.81;;;13.49;nan
55685;BME280;41883;49.544;8.646;2023-04-29T08:01:58;100533.13;;;13.60;nan
55685;BME280;41883;49.544;8.646;2023-04-29T08:04:23;100535.22;;;13.73;nan
55685;BME280;41883;49.544;8.646;2023-04-29T08:06:49;100534.03;;;13.84;nan
55685;BME280;41883;49.544;8.646;2023-04-29T08:09:14;100535.69;;;13.85;nan
55685;BME280;41883;49.544;8.646;2023-04-29T08:11:40;100546.00;;;13.88;nan
55685;BME280;41883;49.544;8.646;2023-04-29T08:14:05;100545.38;;;13.69;nan
55685;BME280;41883;49.544;8.646;2023-04-29T08:16:31;100548.41;;;13.66;nan
55685;BME280;41883;49.544;8.646;2023-04-29T08:18:56;100547.03;;;13.70;nan
55685;BME280;41883;49.544;8.646;2023-04-29T08:21:22;100550.75;;;13.61;nan
55685;BME280;41883;49.544;8.646;2023-04-29T08:23:47;100549.25;;;13.50;nan
55685;BME280;41883;49.544;8.646;2023-04-29T08:26:12;100563.88;;;13.46;nan
55685;BME280;41883;49.544;8.646;2023-04-29T08:28:38;100565.25;;;13.42;nan
55685;BME280;41883;49.544;8.646;2023-04-29T08:31:03;100558.25;;;13.41;nan
55685;BME280;41883;49.544;8.646;2023-04-29T08:33:31;100561.56;;;13.43;nan
55685;BME280;41883;49.544;8.646;2023-04-29T08:35:57;100562.78;;;13.32;nan
55685;BME280;41883;49.544;8.646;2023-04-29T08:38:23;100567.22;;;13.32;nan
55685;BME280;41883;49.544;8.646;2023-04-29T08:40:49;100566.06;;;13.34;nan
55685;BME280;41883;49.544;8.646;2023-04-29T08:43:14;100564.88;;;13.37;nan
55685;BME280;41883;49.544;8.646;2023-04-29T08:45:40;100563.25;;;13.36;nan
55685;BME280;41883;49.544;8.646;2023-04-29T08:48:06;100573.03;;;13.35;nan
55685;BME280;41883;49.544;8.646;2023-04-29T08:50:35;100575.19;;;13.24;nan
55685;BME280;41883;49.544;8.646;2023-04-29T08:53:00;100574.38;;;13.31;nan
55685;BME280;41883;49.544;8.646;2023-04-29T08:55:26;100569.19;;;13.46;nan
55685;BME280;41883;49.544;8.646;2023-04-29T08:57:51;100571.13;;;13.69;nan
55685;BME280;41883;49.544;8.646;2023-04-29T09:00:18;100566.44;;;13.79;nan
55685;BME280;41883;49.544;8.646;2023-04-29T09:02:44;100579.63;;;14.03;nan
55685;BME280;41883;49.544;8.646;2023-04-29T09:05:11;100579.41;;;14.21;nan
55685;BME280;41883;49.544;8.646;2023-04-29T09:07:39;100580.28;;;14.37;nan
55685;BME280;41883;49.544;8.646;2023-04-29T09:10:05;100581.31;;;14.36;nan
55685;BME280;41883;49.544;8.646;2023-04-29T09:12:30;100575.50;;;14.32;nan
55685;BME280;41883;49.544;8.646;2023-04-29T09:14:56;100578.50;;;14.29;nan
55685;BME280;41883;49.544;8.646;2023-04-29T09:17:37;100587.66;;;14.27;nan
55685;BME280;41883;49.544;8.646;2023-04-29T09:20:08;100591.16;;;14.27;nan
55685;BME280;41883;49.544;8.646;2023-04-29T09:25:16;100594.25;;;14.08;nan
55685;BME280;41883;49.544;8.646;2023-04-29T09:27:41;100594.38;;;14.14;nan
55685;BME280;41883;49.544;8.646;2023-04-29T09:30:08;100593.63;;;13.97;nan
55685;BME280;41883;49.544;8.646;2023-04-29T09:32:33;100589.81;;;13.92;nan
55685;BME280;41883;49.544;8.646;2023-04-29T09:34:58;100583.00;;;13.89;nan
55685;BME280;41883;49.544;8.646;2023-04-29T09:37:43;100595.66;;;13.87;nan
55685;BME280;41883;49.544;8.646;2023-04-29T09:40:15;100605.59;;;14.01;nan
55685;BME280;41883;49.544;8.646;2023-04-29T09:42:51;100595.47;;;13.97;nan
55685;BME280;41883;49.544;8.646;2023-04-29T09:45:31;100597.56;;;14.10;nan
55685;BME280;41883;49.544;8.646;2023-04-29T09:48:02;100594.31;;;14.31;nan
55685;BME280;41883;49.544;8.646;2023-04-29T09:50:28;100597.97;;;14.61;nan
55685;BME280;41883;49.544;8.646;2023-04-29T09:52:54;100601.91;;;14.73;nan
55685;BME280;41883;49.544;8.646;2023-04-29T09:55:19;100598.34;;;14.81;nan
55685;BME280;41883;49.544;8.646;2023-04-29T09:57:44;100599.94;;;14.90;nan
55685;BME280;41883;49.544;8.646;2023-04-29T10:00:14;100605.31;;;14.82;nan
55685;BME280;41883;49.544;8.646;2023-04-29T10:02:40;100605.09;;;14.69;nan
55685;BME280;41883;49.544;8.646;2023-04-29T10:05:08;100612.34;;;14.43;nan
55685;BME280;41883;49.544;8.646;2023-04-29T10:07:34;100614.28;;;14.27;nan
55685;BME280;41883;49.544;8.646;2023-04-29T10:09:59;100607.94;;;14.28;nan
55685;BME280;41883;49.544;8.646;2023-04-29T10:12:26;100607.75;;;14.37;nan
55685;BME280;41883;49.544;8.646;2023-04-29T10:14:54;100616.16;;;14.49;nan
55685;BME280;41883;49.544;8.646;2023-04-29T10:20:03;100611.75;;;14.64;nan
55685;BME280;41883;49.544;8.646;2023-04-29T10:22:33;100614.72;;;14.70;nan
55685;BME280;41883;49.544;8.646;2023-04-29T10:25:00;100610.41;;;14.92;nan
55685;BME280;41883;49.544;8.646;2023-04-29T10:27:28;100613.31;;;15.05;nan
55685;BME280;41883;49.544;8.646;2023-04-29T10:29:58;100612.53;;;14.96;nan
55685;BME280;41883;49.544;8.646;2023-04-29T10:32:24;100616.75;;;14.91;nan
55685;BME280;41883;49.544;8.646;2023-04-29T10:34:52;100612.38;;;14.98;nan
55685;BME280;41883;49.544;8.646;2023-04-29T10:37:26;100608.91;;;15.12;nan
55685;BME280;41883;49.544;8.646;2023-04-29T10:42:21;100608.97;;;15.95;nan
55685;BME280;41883;49.544;8.646;2023-04-29T10:45:19;100602.91;;;16.37;nan
55685;BME280;41883;49.544;8.646;2023-04-29T10:53:13;100616.22;;;15.71;nan
55685;BME280;41883;49.544;8.646;2023-04-29T10:55:39;100607.63;;;15.61;nan
55685;BME280;41883;49.544;8.646;2023-04-29T10:58:05;100615.19;;;15.72;nan
55685;BME280;41883;49.544;8.646;2023-04-29T11:00:31;100609.28;;;15.62;nan
55685;BME280;41883;49.544;8.646;2023-04-29T11:03:00;100617.03;;;15.71;nan
55685;BME280;41883;49.544;8.646;2023-04-29T11:08:10;100615.56;;;15.84;nan
55685;BME280;41883;49.544;8.646;2023-04-29T11:10:41;100614.19;;;15.88;nan
55685;BME280;41883;49.544;8.646;2023-04-29T11:13:28;100618.59;;;15.96;nan
55685;BME280;41883;49.544;8.646;2023-04-29T11:16:10;100606.41;;;16.23;nan
55685;BME280;41883;49.544;8.646;2023-04-29T11:18:36;100613.91;;;16.12;nan
55685;BME280;41883;49.544;8.646;2023-04-29T11:21:21;100607.44;;;16.22;nan
55685;BME280;41883;49.544;8.646;2023-04-29T11:23:46;100606.03;;;16.41;nan
55685;BME280;41883;49.544;8.646;2023-04-29T11:26:11;100607.03;;;16.40;nan
55685;BME280;41883;49.544;8.646;2023-04-29T11:28:40;100609.41;;;16.49;nan
55685;BME280;41883;49.544;8.646;2023-04-29T11:31:08;100615.38;;;16.51;nan
55685;BME280;41883;49.544;8.646;2023-04-29T11:33:33;100607.16;;;16.31;nan
55685;BME280;41883;49.544;8.646;2023-04-29T11:36:10;100612.25;;;15.97;nan
55685;BME280;41883;49.544;8.646;2023-04-29T11:38:50;100617.22;;;15.70;nan
55685;BME280;41883;49.544;8.646;2023-04-29T11:41:44;100619.81;;;15.78;nan
55685;BME280;41883;49.544;8.646;2023-04-29T11:44:12;100621.56;;;15.86;nan
55685;BME280;41883;49.544;8.646;2023-04-29T11:46:38;100626.97;;;15.78;nan
55685;BME280;41883;49.544;8.646;2023-04-29T11:49:10;100621.34;;;15.73;nan
55685;BME280;41883;49.544;8.646;2023-04-29T11:51:35;100622.81;;;15.75;nan
55685;BME280;41883;49.544;8.646;2023-04-29T11:54:01;100617.09;;;15.63;nan
55685;BME280;41883;49.544;8.646;2023-04-29T11:56:26;100618.41;;;15.82;nan
55685;BME280;41883;49.544;8.646;2023-04-29T11:58:55;100627.88;;;15.85;nan
55685;BME280;41883;49.544;8.646;2023-04-29T12:01:21;100626.78;;;16.09;nan
55685;BME280;41883;49.544;8.646;2023-04-29T12:03:47;100623.50;;;16.43;nan
55685;BME280;41883;49.544;8.646;2023-04-29T12:06:13;100623.25;;;16.38;nan
55685;BME280;41883;49.544;8.646;2023-04-29T12:08:39;100631.69;;;16.56;nan
55685;BME280;41883;49.544;8.646;2023-04-29T12:11:05;100628.22;;;16.63;nan
55685;BME280;41883;49.544;8.646;2023-04-29T12:13:31;100627.56;;;16.97;nan
55685;BME280;41883;49.544;8.646;2023-04-29T12:15:59;100630.53;;;16.81;nan
55685;BME280;41883;49.544;8.646;2023-04-29T12:18:24;100635.34;;;16.55;nan
55685;BME280;41883;49.544;8.646;2023-04-29T12:20:51;100637.66;;;16.44;nan
55685;BME280;41883;49.544;8.646;2023-04-29T12:23:22;100632.19;;;16.30;nan
55685;BME280;41883;49.544;8.646;2023-04-29T12:25:50;100632.38;;;16.29;nan
55685;BME280;41883;49.544;8.646;2023-04-29T12:28:16;100632.81;;;16.32;nan
55685;BME280;41883;49.544;8.646;2023-04-29T12:30:45;100631.25;;;16.38;nan
55685;BME280;41883;49.544;8.646;2023-04-29T12:33:14;100646.75;;;16.64;nan
55685;BME280;41883;49.544;8.646;2023-04-29T12:35:39;100640.81;;;16.84;nan
55685;BME280;41883;49.544;8.646;2023-04-29T12:38:05;100645.13;;;17.06;nan
55685;BME280;41883;49.544;8.646;2023-04-29T12:40:31;100644.53;;;17.32;nan
55685;BME280;41883;49.544;8.646;2023-04-29T12:42:56;100641.25;;;17.09;nan
55685;BME280;41883;49.544;8.646;2023-04-29T12:45:28;100636.72;;;17.31;nan
55685;BME280;41883;49.544;8.646;2023-04-29T12:47:55;100640.03;;;17.61;nan
55685;BME280;41883;49.544;8.646;2023-04-29T12:50:28;100652.22;;;17.70;nan
55685;BME280;41883;49.544;8.646;2023-04-29T12:52:54;100646.28;;;17.47;nan
55685;BME280;41883;49.544;8.646;2023-04-29T12:55:20;100650.34;;;17.64;nan
55685;BME280;41883;49.544;8.646;2023-04-29T12:57:45;100653.16;;;17.56;nan
55685;BME280;41883;49.544;8.646;2023-04-29T13:00:11;100643.97;;;17.15;nan
55685;BME280;41883;49.544;8.646;2023-04-29T13:02:36;100647.44;;;16.88;nan
55685;BME280;41883;49.544;8.646;2023-04-29T13:05:01;100655.25;;;16.53;nan
55685;BME280;41883;49.544;8.646;2023-04-29T13:07:28;100641.94;;;16.38;nan
55685;BME280;41883;49.544;8.646;2023-04-29T13:09:53;100648.75;;;16.26;nan
55685;BME280;41883;49.544;8.646;2023-04-29T13:12:19;100648.22;;;16.01;nan
55685;BME280;41883;49.544;8.646;2023-04-29T13:14:45;100645.81;;;15.91;nan
55685;BME280;41883;49.544;8.646;2023-04-29T13:17:12;100652.63;;;15.93;nan
55685;BME280;41883;49.544;8.646;2023-04-29T13:19:38;100643.97;;;15.77;nan
55685;BME280;41883;49.544;8.646;2023-04-29T13:22:12;100650.13;;;15.77;nan
55685;BME280;41883;49.544;8.646;2023-04-29T13:24:37;100644.34;;;15.88;nan
55685;BME280;41883;49.544;8.646;2023-04-29T13:27:03;100651.69;;;16.01;nan
55685;BME280;41883;49.544;8.646;2023-04-29T13:32:47;100649.66;;;16.18;nan
55685;BME280;41883;49.544;8.646;2023-04-29T13:38:19;100645.38;;;16.53;nan
55685;BME280;41883;49.544;8.646;2023-04-29T13:41:03;100651.25;;;16.79;nan